sensor_id;sensor_type;location;lat;lon;timestamp;P1;durP1;ratioP1;P2;durP2;ratioP2
49978;SDS011;35869;50.990;6.962;2023-06-22T00:04:55;4.40;;;3.50;;
49978;SDS011;35869;50.990;6.962;2023-06-22T00:09:55;4.05;;;3.45;;
49978;SDS011;35869;50.990;6.962;2023-06-22T00:14:55;4.53;;;3.47;;
49978;SDS011;35869;50.990;6.962;2023-06-22T00:19:55;5.53;;;3.08;;
49978;SDS011;35869;50.990;6.962;2023-06-22T00:24:56;3.78;;;3.33;;
49978;SDS011;35869;50.990;6.962;2023-06-22T00:29:56;3.80;;;3.27;;
49978;SDS011;35869;50.990;6.962;2023-06-22T00:34:56;5.38;;;4.00;;
49978;SDS011;35869;50.990;6.962;2023-06-22T00:39:56;4.20;;;3.80;;
49978;SDS011;35869;50.990;6.962;2023-06-22T00:44:57;4.60;;;3.92;;
49978;SDS011;35869;50.990;6.962;2023-06-22T00:49:57;5.03;;;3.45;;
49978;SDS011;35869;50.990;6.962;2023-06-22T00:54:58;3.08;;;2.63;;
49978;SDS011;35869;50.990;6.962;2023-06-22T00:59:59;4.63;;;3.08;;
49978;SDS011;35869;50.990;6.962;2023-06-22T01:04:59;3.97;;;3.22;;
49978;SDS011;35869;50.990;6.962;2023-06-22T01:10:07;3.50;;;3.20;;
49978;SDS011;35869;50.990;6.962;2023-06-22T01:15:13;3.20;;;2.83;;
49978;SDS011;35869;50.990;6.962;2023-06-22T01:20:18;4.93;;;3.25;;
49978;SDS011;35869;50.990;6.962;2023-06-22T01:25:26;2.80;;;2.58;;
49978;SDS011;35869;50.990;6.962;2023-06-22T01:30:33;3.50;;;3.20;;
49978;SDS011;35869;50.990;6.962;2023-06-22T01:35:33;3.80;;;3.27;;
49978;SDS011;35869;50.990;6.962;2023-06-22T01:40:34;3.92;;;2.80;;
49978;SDS011;35869;50.990;6.962;2023-06-22T01:45:36;3.67;;;3.10;;
49978;SDS011;35869;50.990;6.962;2023-06-22T01:50:36;3.58;;;3.28;;
49978;SDS011;35869;50.990;6.962;2023-06-22T01:55:36;5.20;;;2.78;;
49978;SDS011;35869;50.990;6.962;2023-06-22T02:00:37;4.45;;;3.17;;
49978;SDS011;35869;50.990;6.962;2023-06-22T02:05:46;3.03;;;2.72;;
49978;SDS011;35869;50.990;6.962;2023-06-22T02:10:50;4.32;;;3.58;;
49978;SDS011;35869;50.990;6.962;2023-06-22T02:15:52;3.45;;;2.95;;
49978;SDS011;35869;50.990;6.962;2023-06-22T02:20:53;3.72;;;2.55;;
49978;SDS011;35869;50.990;6.962;2023-06-22T02:25:53;4.95;;;3.25;;
49978;SDS011;35869;50.990;6.962;2023-06-22T02:30:53;3.53;;;2.60;;
49978;SDS011;35869;50.990;6.962;2023-06-22T02:35:53;3.75;;;2.58;;
49978;SDS011;35869;50.990;6.962;2023-06-22T02:40:54;4.17;;;3.63;;
49978;SDS011;35869;50.990;6.962;2023-06-22T02:45:54;3.53;;;3.20;;
49978;SDS011;35869;50.990;6.962;2023-06-22T02:50:55;4.28;;;3.38;;
49978;SDS011;35869;50.990;6.962;2023-06-22T02:55:55;3.40;;;3.10;;
49978;SDS011;35869;50.990;6.962;2023-06-22T03:00:55;4.97;;;3.38;;
49978;SDS011;35869;50.990;6.962;2023-06-22T03:05:56;3.55;;;3.10;;
49978;SDS011;35869;50.990;6.962;2023-06-22T03:10:56;3.75;;;3.38;;
49978;SDS011;35869;50.990;6.962;2023-06-22T03:15:56;3.83;;;3.47;;
49978;SDS011;35869;50.990;6.962;2023-06-22T03:20:56;5.82;;;3.53;;
49978;SDS011;35869;50.990;6.962;2023-06-22T03:25:56;4.53;;;3.55;;
49978;SDS011;35869;50.990;6.962;2023-06-22T03:30:57;4.15;;;3.72;;
49978;SDS011;35869;50.990;6.962;2023-06-22T03:35:58;4.50;;;3.13;;
49978;SDS011;35869;50.990;6.962;2023-06-22T03:40:58;4.57;;;3.63;;
49978;SDS011;35869;50.990;6.962;2023-06-22T03:45:58;3.03;;;2.83;;
49978;SDS011;35869;50.990;6.962;2023-06-22T03:51:01;4.68;;;3.20;;
49978;SDS011;35869;50.990;6.962;2023-06-22T03:56:02;5.40;;;2.88;;
49978;SDS011;35869;50.990;6.962;2023-06-22T04:01:02;4.00;;;3.07;;
49978;SDS011;35869;50.990;6.962;2023-06-22T04:06:02;3.03;;;2.78;;
49978;SDS011;35869;50.990;6.962;2023-06-22T04:11:03;4.55;;;3.03;;
49978;SDS011;35869;50.990;6.962;2023-06-22T04:16:03;4.05;;;3.47;;
49978;SDS011;35869;50.990;6.962;2023-06-22T04:21:04;4.17;;;3.43;;
49978;SDS011;35869;50.990;6.962;2023-06-22T04:26:04;5.18;;;3.35;;
49978;SDS011;35869;50.990;6.962;2023-06-22T04:31:05;4.90;;;4.30;;
49978;SDS011;35869;50.990;6.962;2023-06-22T04:36:05;6.20;;;4.15;;
49978;SDS011;35869;50.990;6.962;2023-06-22T04:41:05;4.80;;;4.20;;
49978;SDS011;35869;50.990;6.962;2023-06-22T04:46:05;4.60;;;4.20;;
49978;SDS011;35869;50.990;6.962;2023-06-22T04:51:05;5.70;;;4.30;;
49978;SDS011;35869;50.990;6.962;2023-06-22T04:56:06;6.03;;;4.57;;
49978;SDS011;35869;50.990;6.962;2023-06-22T05:01:06;5.53;;;4.82;;
49978;SDS011;35869;50.990;6.962;2023-06-22T05:06:06;6.47;;;4.80;;
49978;SDS011;35869;50.990;6.962;2023-06-22T05:11:06;5.97;;;5.38;;
49978;SDS011;35869;50.990;6.962;2023-06-22T05:16:07;6.45;;;5.63;;
49978;SDS011;35869;50.990;6.962;2023-06-22T05:21:07;6.00;;;5.35;;
49978;SDS011;35869;50.990;6.962;2023-06-22T05:26:07;6.40;;;5.70;;
49978;SDS011;35869;50.990;6.962;2023-06-22T05:31:07;6.28;;;5.68;;
49978;SDS011;35869;50.990;6.962;2023-06-22T05:36:08;7.63;;;5.82;;
49978;SDS011;35869;50.990;6.962;2023-06-22T05:41:08;5.80;;;5.30;;
49978;SDS011;35869;50.990;6.962;2023-06-22T05:46:08;8.23;;;6.15;;
49978;SDS011;35869;50.990;6.962;2023-06-22T05:51:09;9.45;;;6.50;;
49978;SDS011;35869;50.990;6.962;2023-06-22T05:56:09;9.27;;;6.20;;
49978;SDS011;35869;50.990;6.962;2023-06-22T06:01:09;8.50;;;6.78;;
49978;SDS011;35869;50.990;6.962;2023-06-22T06:06:09;8.15;;;6.50;;
49978;SDS011;35869;50.990;6.962;2023-06-22T06:11:10;6.72;;;6.10;;
49978;SDS011;35869;50.990;6.962;2023-06-22T06:16:10;9.93;;;6.75;;
49978;SDS011;35869;50.990;6.962;2023-06-22T06:21:10;8.00;;;7.22;;
49978;SDS011;35869;50.990;6.962;2023-06-22T06:26:10;8.43;;;7.63;;
49978;SDS011;35869;50.990;6.962;2023-06-22T06:31:11;8.05;;;6.82;;
49978;SDS011;35869;50.990;6.962;2023-06-22T06:36:11;9.68;;;7.13;;
49978;SDS011;35869;50.990;6.962;2023-06-22T06:41:11;7.72;;;7.03;;
49978;SDS011;35869;50.990;6.962;2023-06-22T06:46:11;7.45;;;6.65;;
49978;SDS011;35869;50.990;6.962;2023-06-22T06:51:11;8.13;;;6.95;;
49978;SDS011;35869;50.990;6.962;2023-06-22T06:56:12;7.57;;;6.88;;
49978;SDS011;35869;50.990;6.962;2023-06-22T07:01:12;10.93;;;7.47;;
49978;SDS011;35869;50.990;6.962;2023-06-22T07:06:13;7.70;;;7.00;;
49978;SDS011;35869;50.990;6.962;2023-06-22T07:11:13;7.90;;;7.18;;
49978;SDS011;35869;50.990;6.962;2023-06-22T07:16:13;8.57;;;7.78;;
49978;SDS011;35869;50.990;6.962;2023-06-22T07:21:14;11.07;;;7.63;;
49978;SDS011;35869;50.990;6.962;2023-06-22T07:26:14;8.10;;;7.30;;
49978;SDS011;35869;50.990;6.962;2023-06-22T07:31:14;7.72;;;6.95;;
49978;SDS011;35869;50.990;6.962;2023-06-22T07:36:14;7.75;;;7.05;;
49978;SDS011;35869;50.990;6.962;2023-06-22T07:41:14;8.00;;;7.22;;
49978;SDS011;35869;50.990;6.962;2023-06-22T07:46:15;12.10;;;10.98;;
49978;SDS011;35869;50.990;6.962;2023-06-22T07:51:15;12.88;;;11.00;;
49978;SDS011;35869;50.990;6.962;2023-06-22T07:56:15;8.90;;;8.07;;
49978;SDS011;35869;50.990;6.962;2023-06-22T08:01:16;6.57;;;5.85;;
49978;SDS011;35869;50.990;6.962;2023-06-22T08:06:16;6.85;;;6.15;;
49978;SDS011;35869;50.990;6.962;2023-06-22T08:11:16;10.07;;;5.90;;
49978;SDS011;35869;50.990;6.962;2023-06-22T08:16:17;8.68;;;5.90;;
49978;SDS011;35869;50.990;6.962;2023-06-22T08:21:17;6.40;;;5.80;;
49978;SDS011;35869;50.990;6.962;2023-06-22T08:26:17;6.47;;;5.78;;
49978;SDS011;35869;50.990;6.962;2023-06-22T08:31:17;6.35;;;5.80;;
49978;SDS011;35869;50.990;6.962;2023-06-22T08:36:18;6.70;;;6.10;;
49978;SDS011;35869;50.990;6.962;2023-06-22T08:41:18;6.33;;;5.73;;
49978;SDS011;35869;50.990;6.962;2023-06-22T08:46:18;7.05;;;6.30;;
49978;SDS011;35869;50.990;6.962;2023-06-22T08:51:19;6.43;;;5.82;;
49978;SDS011;35869;50.990;6.962;2023-06-22T08:56:19;6.97;;;6.25;;
49978;SDS011;35869;50.990;6.962;2023-06-22T09:06:20;7.07;;;6.45;;
49978;SDS011;35869;50.990;6.962;2023-06-22T09:11:20;8.00;;;7.30;;
49978;SDS011;35869;50.990;6.962;2023-06-22T09:21:21;7.07;;;5.93;;
49978;SDS011;35869;50.990;6.962;2023-06-22T09:31:21;7.35;;;6.03;;
49978;SDS011;35869;50.990;6.962;2023-06-22T09:36:21;6.97;;;5.67;;
49978;SDS011;35869;50.990;6.962;2023-06-22T09:41:22;6.35;;;5.50;;
49978;SDS011;35869;50.990;6.962;2023-06-22T09:46:23;7.05;;;5.63;;
49978;SDS011;35869;50.990;6.962;2023-06-22T09:51:23;6.43;;;5.25;;
49978;SDS011;35869;50.990;6.962;2023-06-22T09:56:23;6.55;;;5.22;;
49978;SDS011;35869;50.990;6.962;2023-06-22T10:01:23;6.97;;;4.90;;
49978;SDS011;35869;50.990;6.962;2023-06-22T10:06:24;6.65;;;5.93;;
49978;SDS011;35869;50.990;6.962;2023-06-22T10:11:24;5.63;;;5.13;;
49978;SDS011;35869;50.990;6.962;2023-06-22T10:16:29;6.38;;;5.75;;
49978;SDS011;35869;50.990;6.962;2023-06-22T10:21:30;6.18;;;5.57;;
49978;SDS011;35869;50.990;6.962;2023-06-22T10:26:31;6.35;;;5.75;;
49978;SDS011;35869;50.990;6.962;2023-06-22T10:31:32;8.80;;;6.28;;
49978;SDS011;35869;50.990;6.962;2023-06-22T10:36:32;7.60;;;5.93;;
49978;SDS011;35869;50.990;6.962;2023-06-22T10:41:32;7.18;;;6.38;;
49978;SDS011;35869;50.990;6.962;2023-06-22T10:46:33;13.20;;;7.85;;
49978;SDS011;35869;50.990;6.962;2023-06-22T10:51:33;10.88;;;8.25;;
49978;SDS011;35869;50.990;6.962;2023-06-22T10:56:33;12.45;;;9.38;;
49978;SDS011;35869;50.990;6.962;2023-06-22T11:01:33;9.77;;;8.57;;
49978;SDS011;35869;50.990;6.962;2023-06-22T11:06:33;16.30;;;11.82;;
49978;SDS011;35869;50.990;6.962;2023-06-22T11:11:34;12.07;;;9.63;;
49978;SDS011;35869;50.990;6.962;2023-06-22T11:16:34;13.70;;;11.27;;
49978;SDS011;35869;50.990;6.962;2023-06-22T11:21:34;13.15;;;10.30;;
49978;SDS011;35869;50.990;6.962;2023-06-22T11:31:35;14.67;;;12.83;;
49978;SDS011;35869;50.990;6.962;2023-06-22T11:36:35;21.50;;;17.33;;
49978;SDS011;35869;50.990;6.962;2023-06-22T11:46:36;14.27;;;12.80;;
49978;SDS011;35869;50.990;6.962;2023-06-22T11:51:36;14.95;;;13.45;;
49978;SDS011;35869;50.990;6.962;2023-06-22T11:56:37;14.82;;;12.65;;
49978;SDS011;35869;50.990;6.962;2023-06-22T12:01:38;15.25;;;13.65;;
49978;SDS011;35869;50.990;6.962;2023-06-22T12:11:38;18.70;;;14.23;;
49978;SDS011;35869;50.990;6.962;2023-06-22T12:16:39;16.37;;;12.83;;
49978;SDS011;35869;50.990;6.962;2023-06-22T12:21:39;14.30;;;12.90;;
49978;SDS011;35869;50.990;6.962;2023-06-22T12:26:39;14.10;;;12.60;;
49978;SDS011;35869;50.990;6.962;2023-06-22T12:31:39;15.25;;;13.70;;
49978;SDS011;35869;50.990;6.962;2023-06-22T12:36:39;13.02;;;11.10;;
49978;SDS011;35869;50.990;6.962;2023-06-22T12:41:40;10.60;;;8.70;;
49978;SDS011;35869;50.990;6.962;2023-06-22T12:46:40;11.30;;;10.02;;
49978;SDS011;35869;50.990;6.962;2023-06-22T12:51:40;11.57;;;10.38;;
49978;SDS011;35869;50.990;6.962;2023-06-22T12:56:41;12.40;;;10.10;;
49978;SDS011;35869;50.990;6.962;2023-06-22T13:06:42;10.70;;;9.68;;
49978;SDS011;35869;50.990;6.962;2023-06-22T13:21:43;7.97;;;7.03;;
49978;SDS011;35869;50.990;6.962;2023-06-22T13:31:43;6.60;;;5.35;;
49978;SDS011;35869;50.990;6.962;2023-06-22T13:41:43;6.03;;;5.43;;
49978;SDS011;35869;50.990;6.962;2023-06-22T13:51:44;5.07;;;4.63;;
49978;SDS011;35869;50.990;6.962;2023-06-22T14:01:44;4.03;;;3.63;;
49978;SDS011;35869;50.990;6.962;2023-06-22T14:11:44;3.80;;;3.50;;
49978;SDS011;35869;50.990;6.962;2023-06-22T14:21:45;6.80;;;5.07;;
49978;SDS011;35869;50.990;6.962;2023-06-22T14:31:45;5.10;;;4.65;;
49978;SDS011;35869;50.990;6.962;2023-06-22T14:36:46;6.20;;;5.20;;
49978;SDS011;35869;50.990;6.962;2023-06-22T14:46:46;4.65;;;4.10;;
49978;SDS011;35869;50.990;6.962;2023-06-22T14:56:47;3.97;;;3.57;;
49978;SDS011;35869;50.990;6.962;2023-06-22T15:01:48;4.32;;;3.90;;
49978;SDS011;35869;50.990;6.962;2023-06-22T15:11:48;6.00;;;4.77;;
49978;SDS011;35869;50.990;6.962;2023-06-22T15:21:48;7.97;;;6.10;;
49978;SDS011;35869;50.990;6.962;2023-06-22T15:31:49;8.20;;;6.20;;
49978;SDS011;35869;50.990;6.962;2023-06-22T15:36:49;9.07;;;7.10;;
49978;SDS011;35869;50.990;6.962;2023-06-22T15:41:49;11.77;;;7.85;;
49978;SDS011;35869;50.990;6.962;2023-06-22T15:46:49;9.85;;;8.45;;
49978;SDS011;35869;50.990;6.962;2023-06-22T15:51:50;8.70;;;7.80;;
49978;SDS011;35869;50.990;6.962;2023-06-22T15:56:50;8.73;;;7.82;;
49978;SDS011;35869;50.990;6.962;2023-06-22T16:01:50;9.02;;;7.95;;
49978;SDS011;35869;50.990;6.962;2023-06-22T16:06:51;9.27;;;7.03;;
49978;SDS011;35869;50.990;6.962;2023-06-22T16:11:51;7.60;;;6.85;;
49978;SDS011;35869;50.990;6.962;2023-06-22T16:16:51;10.05;;;6.93;;
49978;SDS011;35869;50.990;6.962;2023-06-22T16:21:51;9.35;;;7.43;;
49978;SDS011;35869;50.990;6.962;2023-06-22T16:26:51;9.82;;;7.78;;
49978;SDS011;35869;50.990;6.962;2023-06-22T16:31:52;9.43;;;8.27;;
49978;SDS011;35869;50.990;6.962;2023-06-22T16:36:52;12.38;;;8.90;;
49978;SDS011;35869;50.990;6.962;2023-06-22T16:41:52;10.27;;;9.18;;
49978;SDS011;35869;50.990;6.962;2023-06-22T16:46:52;8.68;;;7.95;;
49978;SDS011;35869;50.990;6.962;2023-06-22T16:51:52;8.68;;;7.90;;
49978;SDS011;35869;50.990;6.962;2023-06-22T16:56:53;8.85;;;8.02;;
49978;SDS011;35869;50.990;6.962;2023-06-22T17:01:54;8.60;;;7.85;;
49978;SDS011;35869;50.990;6.962;2023-06-22T17:07:14;9.52;;;8.57;;
49978;SDS011;35869;50.990;6.962;2023-06-22T17:12:18;9.13;;;7.75;;
49978;SDS011;35869;50.990;6.962;2023-06-22T17:17:19;5.05;;;2.70;;
49978;SDS011;35869;50.990;6.962;2023-06-22T17:22:19;3.75;;;3.45;;
49978;SDS011;35869;50.990;6.962;2023-06-22T17:27:26;2.90;;;2.60;;
49978;SDS011;35869;50.990;6.962;2023-06-22T17:32:29;3.85;;;2.70;;
49978;SDS011;35869;50.990;6.962;2023-06-22T17:37:33;2.47;;;2.28;;
49978;SDS011;35869;50.990;6.962;2023-06-22T17:42:45;3.85;;;2.95;;
49978;SDS011;35869;50.990;6.962;2023-06-22T17:47:46;3.40;;;3.00;;
49978;SDS011;35869;50.990;6.962;2023-06-22T17:52:51;4.43;;;4.03;;
49978;SDS011;35869;50.990;6.962;2023-06-22T17:57:57;5.00;;;4.40;;
49978;SDS011;35869;50.990;6.962;2023-06-22T18:02:58;4.78;;;4.35;;
49978;SDS011;35869;50.990;6.962;2023-06-22T18:07:59;5.82;;;5.38;;
49978;SDS011;35869;50.990;6.962;2023-06-22T18:13:03;8.68;;;7.97;;
49978;SDS011;35869;50.990;6.962;2023-06-22T18:18:07;9.85;;;8.25;;
49978;SDS011;35869;50.990;6.962;2023-06-22T18:23:09;12.90;;;11.80;;
49978;SDS011;35869;50.990;6.962;2023-06-22T18:28:09;14.52;;;13.05;;
49978;SDS011;35869;50.990;6.962;2023-06-22T18:33:12;21.70;;;19.35;;
49978;SDS011;35869;50.990;6.962;2023-06-22T18:38:12;21.50;;;19.42;;
49978;SDS011;35869;50.990;6.962;2023-06-22T18:43:19;20.10;;;18.10;;
49978;SDS011;35869;50.990;6.962;2023-06-22T18:48:23;18.42;;;16.67;;
49978;SDS011;35869;50.990;6.962;2023-06-22T18:58:24;18.73;;;17.02;;
49978;SDS011;35869;50.990;6.962;2023-06-22T19:03:33;20.67;;;17.87;;
49978;SDS011;35869;50.990;6.962;2023-06-22T19:14:21;18.88;;;16.98;;
49978;SDS011;35869;50.990;6.962;2023-06-22T19:19:22;13.55;;;12.25;;
49978;SDS011;35869;50.990;6.962;2023-06-22T19:24:30;13.70;;;12.50;;
49978;SDS011;35869;50.990;6.962;2023-06-22T19:29:31;11.40;;;10.40;;
49978;SDS011;35869;50.990;6.962;2023-06-22T19:34:34;5.85;;;5.25;;
49978;SDS011;35869;50.990;6.962;2023-06-22T19:39:35;4.85;;;4.35;;
49978;SDS011;35869;50.990;6.962;2023-06-22T19:44:35;4.95;;;4.18;;
49978;SDS011;35869;50.990;6.962;2023-06-22T19:49:35;3.65;;;3.30;;
49978;SDS011;35869;50.990;6.962;2023-06-22T19:54:38;3.80;;;3.05;;
49978;SDS011;35869;50.990;6.962;2023-06-22T19:59:38;4.30;;;3.65;;
49978;SDS011;35869;50.990;6.962;2023-06-22T20:04:39;5.03;;;4.57;;
49978;SDS011;35869;50.990;6.962;2023-06-22T20:09:39;5.50;;;5.03;;
49978;SDS011;35869;50.990;6.962;2023-06-22T20:14:39;5.97;;;5.30;;
49978;SDS011;35869;50.990;6.962;2023-06-22T20:19:39;6.77;;;5.90;;
49978;SDS011;35869;50.990;6.962;2023-06-22T20:24:40;8.93;;;8.02;;
49978;SDS011;35869;50.990;6.962;2023-06-22T20:29:40;8.48;;;6.30;;
49978;SDS011;35869;50.990;6.962;2023-06-22T20:34:43;8.70;;;7.15;;
49978;SDS011;35869;50.990;6.962;2023-06-22T20:39:44;7.50;;;5.95;;
49978;SDS011;35869;50.990;6.962;2023-06-22T20:44:45;7.87;;;6.50;;
49978;SDS011;35869;50.990;6.962;2023-06-22T20:49:45;6.55;;;5.93;;
49978;SDS011;35869;50.990;6.962;2023-06-22T20:54:45;8.23;;;7.28;;
49978;SDS011;35869;50.990;6.962;2023-06-22T20:59:45;8.90;;;8.00;;
49978;SDS011;35869;50.990;6.962;2023-06-22T21:04:46;12.02;;;9.20;;
49978;SDS011;35869;50.990;6.962;2023-06-22T21:09:46;14.25;;;9.18;;
49978;SDS011;35869;50.990;6.962;2023-06-22T21:14:46;8.73;;;7.70;;
49978;SDS011;35869;50.990;6.962;2023-06-22T21:19:47;10.50;;;9.40;;
49978;SDS011;35869;50.990;6.962;2023-06-22T21:25:01;8.05;;;7.25;;
49978;SDS011;35869;50.990;6.962;2023-06-22T21:30:03;10.95;;;9.00;;
49978;SDS011;35869;50.990;6.962;2023-06-22T21:35:07;9.63;;;8.57;;
49978;SDS011;35869;50.990;6.962;2023-06-22T21:40:09;9.35;;;8.45;;
49978;SDS011;35869;50.990;6.962;2023-06-22T21:45:09;8.68;;;7.20;;
49978;SDS011;35869;50.990;6.962;2023-06-22T21:50:09;11.67;;;10.47;;
49978;SDS011;35869;50.990;6.962;2023-06-22T21:55:10;11.82;;;10.73;;
49978;SDS011;35869;50.990;6.962;2023-06-22T22:00:10;13.27;;;11.40;;
49978;SDS011;35869;50.990;6.962;2023-06-22T22:05:10;13.20;;;11.85;;
49978;SDS011;35869;50.990;6.962;2023-06-22T22:10:11;11.50;;;10.40;;
49978;SDS011;35869;50.990;6.962;2023-06-22T22:15:11;11.68;;;10.48;;
49978;SDS011;35869;50.990;6.962;2023-06-22T22:20:12;11.50;;;10.13;;
49978;SDS011;35869;50.990;6.962;2023-06-22T22:25:13;12.57;;;10.95;;
49978;SDS011;35869;50.990;6.962;2023-06-22T22:30:13;11.68;;;10.43;;
49978;SDS011;35869;50.990;6.962;2023-06-22T22:35:15;12.00;;;10.43;;
49978;SDS011;35869;50.990;6.962;2023-06-22T22:40:15;13.23;;;11.75;;
49978;SDS011;35869;50.990;6.962;2023-06-22T22:45:15;14.68;;;13.18;;
49978;SDS011;35869;50.990;6.962;2023-06-22T22:50:15;14.93;;;13.38;;
49978;SDS011;35869;50.990;6.962;2023-06-22T22:55:16;16.00;;;14.40;;
49978;SDS011;35869;50.990;6.962;2023-06-22T23:00:17;13.48;;;12.07;;
49978;SDS011;35869;50.990;6.962;2023-06-22T23:05:18;15.13;;;13.53;;
49978;SDS011;35869;50.990;6.962;2023-06-22T23:10:18;11.33;;;10.13;;
49978;SDS011;35869;50.990;6.962;2023-06-22T23:15:18;11.75;;;9.85;;
49978;SDS011;35869;50.990;6.962;2023-06-22T23:20:18;11.50;;;10.27;;
49978;SDS011;35869;50.990;6.962;2023-06-22T23:25:19;12.20;;;10.90;;
49978;SDS011;35869;50.990;6.962;2023-06-22T23:30:19;13.35;;;11.80;;
49978;SDS011;35869;50.990;6.962;2023-06-22T23:35:20;15.30;;;12.88;;
49978;SDS011;35869;50.990;6.962;2023-06-22T23:40:20;14.00;;;10.57;;
49978;SDS011;35869;50.990;6.962;2023-06-22T23:45:20;13.27;;;11.38;;
49978;SDS011;35869;50.990;6.962;2023-06-22T23:50:21;16.08;;;13.65;;
49978;SDS011;35869;50.990;6.962;2023-06-22T23:55:21;17.38;;;12.57;;
